Welcome to Northern Hawkes Bay. New Zealand.
PWS Header
      nz Flag



Hit Counter


W3C Valid W3C Valid logo


    Wairoa

Select any of the Stations below to visit their websites.










Historic Data from Weather Underground
Select the location of interest below. Wairoa is the default. Please have patience, this Data is slow to load in.
Northern Hawkes Bay Historical Data
Daily Summary for April 15, 2017 Units:  Metric    English   Both
« Previous Day
Next Day »
Daily Weekly Monthly Yearly Custom
  High: Low: Average:
Temperature: 27.1 °C 9.7 °C 17 °C
Dew Point: 14.6 °C 9.6 °C 12 °C
Humidity: 99% 36% 75%
Wind Speed: 18.3km/h 0.0km/h 3.4km/h
Wind Gust: 31.7km/h - -
Wind- - SW
Pressure: 1011.7 hPa 1005.6 hPa -
Precipitation: 0.0 mm    
Historical Graphs
 
 
Tabular Data for April 15, 2017
Time Temperature Dew Point Pressure Wind Wind Speed Wind Gust Humidity Rainfall Rate (Hourly) solar
00:08 20.6 °C 13.8 °C 1005.6 hPa North 18.3 km/h 31.7 km/h 65% 0.0 mm 91 W/m2
00:13 20.6 °C 13.8 °C 1005.6 hPa NNE 14.8 km/h 29.4 km/h 65% 0.0 mm 98 W/m2
00:18 20.6 °C 14.1 °C 1005.6 hPa North 13.4 km/h 27.0 km/h 66% 0.0 mm 91 W/m2
00:23 20.5 °C 13.7 °C 1005.6 hPa NNW 13.4 km/h 24.5 km/h 65% 0.0 mm 65 W/m2
00:28 20.4 °C 13.8 °C 1006.0 hPa NNW 17.2 km/h 25.6 km/h 66% 0.0 mm 62 W/m2
00:33 20.3 °C 14.0 °C 1005.6 hPa North 14.8 km/h 25.6 km/h 67% 0.0 mm 74 W/m2
00:43 21.2 °C 14.1 °C 1005.6 hPa NNW 15.8 km/h 24.5 km/h 64% 0.0 mm 96 W/m2
00:48 21.5 °C 14.2 °C 1006.0 hPa NNW 7.2 km/h 24.5 km/h 63% 0.0 mm 85 W/m2
00:53 21.5 °C 14.2 °C 1006.0 hPa NW 7.2 km/h 20.9 km/h 63% 0.0 mm 82 W/m2
00:58 22.1 °C 14.2 °C 1006.0 hPa WNW 7.2 km/h 13.4 km/h 61% 0.0 mm 76 W/m2
01:03 22.0 °C 14.2 °C 1006.3 hPa NW 5.0 km/h 19.5 km/h 61% 0.0 mm 48 W/m2
01:08 21.9 °C 14.6 °C 1006.3 hPa NNW 6.1 km/h 19.5 km/h 63% 0.0 mm 31 W/m2
01:13 21.0 °C 13.9 °C 1006.3 hPa NNW 6.1 km/h 13.4 km/h 64% 0.0 mm 22 W/m2
01:18 20.3 °C 14.2 °C 1006.7 hPa North 8.7 km/h 17.2 km/h 68% 0.0 mm 21 W/m2
01:23 19.8 °C 14.4 °C 1006.3 hPa North 9.7 km/h 17.2 km/h 71% 0.0 mm 13 W/m2
01:28 19.5 °C 14.6 °C 1006.3 hPa North 8.7 km/h 17.2 km/h 73% 0.0 mm 9 W/m2
01:38 19.1 °C 14.6 °C 1006.7 hPa North 8.7 km/h 14.8 km/h 75% 0.0 mm 4 W/m2
01:43 19.0 °C 14.5 °C 1006.7 hPa NNW 8.7 km/h 15.8 km/h 75% 0.0 mm 2 W/m2
01:48 18.7 °C 14.6 °C 1006.3 hPa North 7.2 km/h 15.8 km/h 77% 0.0 mm 0 W/m2
01:53 18.6 °C 14.5 °C 1006.7 hPa North 9.7 km/h 14.8 km/h 77% 0.0 mm 0 W/m2
01:58 18.5 °C 14.4 °C 1006.7 hPa North 8.7 km/h 15.8 km/h 77% 0.0 mm 0 W/m2
02:03 18.5 °C 14.2 °C 1006.7 hPa North 6.1 km/h 15.8 km/h 76% 0.0 mm 0 W/m2
02:08 18.5 °C 14.2 °C 1006.7 hPa NNW 6.1 km/h 14.8 km/h 76% 0.0 mm 0 W/m2
02:13 18.5 °C 14.2 °C 1007.0 hPa NNW 5.0 km/h 13.4 km/h 76% 0.0 mm 0 W/m2
02:18 18.4 °C 14.1 °C 1007.0 hPa NNW 3.5 km/h 11.1 km/h 76% 0.0 mm 0 W/m2
02:23 18.2 °C 14.1 °C 1007.0 hPa NW 3.5 km/h 7.2 km/h 77% 0.0 mm 0 W/m2
02:28 18.0 °C 14.1 °C 1007.3 hPa NNW 3.5 km/h 8.7 km/h 78% 0.0 mm 0 W/m2
02:33 17.9 °C 14.2 °C 1007.3 hPa NNW 8.7 km/h 11.1 km/h 79% 0.0 mm 0 W/m2
02:38 17.9 °C 14.2 °C 1007.0 hPa NNW 5.0 km/h 12.2 km/h 79% 0.0 mm 0 W/m2
02:43 18.0 °C 14.1 °C 1007.3 hPa North 9.7 km/h 14.8 km/h 78% 0.0 mm 0 W/m2
02:48 18.1 °C 14.0 °C 1007.3 hPa North 7.2 km/h 14.8 km/h 77% 0.0 mm 0 W/m2
02:58 18.2 °C 13.9 °C 1007.3 hPa NNW 6.1 km/h 15.8 km/h 76% 0.0 mm 0 W/m2
03:03 18.1 °C 14.0 °C 1007.3 hPa NNW 8.7 km/h 15.8 km/h 77% 0.0 mm 0 W/m2
03:08 18.0 °C 13.9 °C 1007.3 hPa North 8.7 km/h 14.8 km/h 77% 0.0 mm 0 W/m2
03:13 17.9 °C 13.8 °C 1007.3 hPa North 5.0 km/h 14.8 km/h 77% 0.0 mm 0 W/m2
03:18 18.0 °C 13.9 °C 1007.3 hPa North 7.2 km/h 14.8 km/h 77% 0.0 mm 0 W/m2
03:23 17.9 °C 13.8 °C 1007.3 hPa NNW 3.5 km/h 14.8 km/h 77% 0.0 mm 0 W/m2
03:28 17.8 °C 13.9 °C 1007.3 hPa NNW 7.2 km/h 12.2 km/h 78% 0.0 mm 0 W/m2
03:33 17.7 °C 14.0 °C 1007.7 hPa NNW 7.2 km/h 15.8 km/h 79% 0.0 mm 0 W/m2
03:38 17.6 °C 14.1 °C 1007.3 hPa NNW 7.2 km/h 15.8 km/h 80% 0.0 mm 0 W/m2
03:43 17.5 °C 14.0 °C 1007.3 hPa NNW 7.2 km/h 15.8 km/h 80% 0.0 mm 0 W/m2
03:48 17.4 °C 14.1 °C 1007.3 hPa NNW 2.6 km/h 14.8 km/h 81% 0.0 mm 0 W/m2
03:53 17.4 °C 14.1 °C 1007.3 hPa NNW 8.7 km/h 13.4 km/h 81% 0.0 mm 0 W/m2
03:58 17.3 °C 14.2 °C 1007.7 hPa NNW 7.2 km/h 12.2 km/h 82% 0.0 mm 0 W/m2
04:03 17.3 °C 14.2 °C 1007.7 hPa NNW 8.7 km/h 14.8 km/h 82% 0.0 mm 0 W/m2
04:08 17.1 °C 14.2 °C 1007.7 hPa North 5.0 km/h 14.8 km/h 83% 0.0 mm 0 W/m2
04:13 17.1 °C 14.2 °C 1007.7 hPa NNW 3.5 km/h 12.2 km/h 83% 0.0 mm 0 W/m2
04:18 17.0 °C 14.1 °C 1007.7 hPa NNW 7.2 km/h 13.4 km/h 83% 0.0 mm 0 W/m2
04:23 16.9 °C 14.2 °C 1007.7 hPa NNW 9.7 km/h 13.4 km/h 84% 0.0 mm 0 W/m2
04:28 16.9 °C 14.2 °C 1007.7 hPa NNW 6.1 km/h 13.4 km/h 84% 0.0 mm 0 W/m2
04:33 16.9 °C 14.0 °C 1007.7 hPa North 6.1 km/h 13.4 km/h 83% 0.0 mm 0 W/m2
04:38 16.9 °C 14.0 °C 1008.0 hPa NNW 9.7 km/h 14.8 km/h 83% 0.0 mm 0 W/m2
04:48 16.9 °C 13.8 °C 1008.4 hPa North 6.1 km/h 15.8 km/h 82% 0.0 mm 0 W/m2
04:53 16.9 °C 13.6 °C 1008.0 hPa North 7.2 km/h 12.2 km/h 81% 0.0 mm 0 W/m2
04:58 16.9 °C 13.4 °C 1008.4 hPa NNW 9.7 km/h 17.2 km/h 80% 0.0 mm 0 W/m2
05:03 17.2 °C 12.9 °C 1008.4 hPa NNW 9.7 km/h 17.2 km/h 76% 0.0 mm 0 W/m2
05:08 17.3 °C 12.8 °C 1008.4 hPa NNW 7.2 km/h 15.8 km/h 75% 0.0 mm 0 W/m2
05:13 17.3 °C 12.8 °C 1008.4 hPa NNW 8.7 km/h 14.8 km/h 75% 0.0 mm 0 W/m2
05:18 16.9 °C 12.7 °C 1008.4 hPa NNW 7.2 km/h 13.4 km/h 76% 0.0 mm 0 W/m2
05:23 17.1 °C 12.7 °C 1008.4 hPa NNW 5.0 km/h 15.8 km/h 75% 0.0 mm 0 W/m2
05:28 17.0 °C 12.6 °C 1008.4 hPa NNW 6.1 km/h 15.8 km/h 75% 0.0 mm 0 W/m2
05:33 16.9 °C 12.7 °C 1008.4 hPa NNW 5.0 km/h 14.8 km/h 76% 0.0 mm 0 W/m2
05:38 17.1 °C 12.8 °C 1008.4 hPa NW 6.1 km/h 13.4 km/h 76% 0.0 mm 0 W/m2
05:43 16.7 °C 12.7 °C 1008.4 hPa NNW 2.6 km/h 11.1 km/h 77% 0.0 mm 0 W/m2
05:48 16.5 °C 12.4 °C 1008.4 hPa NNW 5.0 km/h 11.1 km/h 77% 0.0 mm 0 W/m2
05:53 16.5 °C 12.7 °C 1008.7 hPa NNW 7.2 km/h 11.1 km/h 78% 0.0 mm 0 W/m2
05:58 16.8 °C 12.9 °C 1008.7 hPa NNW 6.1 km/h 9.7 km/h 78% 0.0 mm 0 W/m2
06:03 16.4 °C 12.6 °C 1008.7 hPa NNW 3.5 km/h 9.7 km/h 78% 0.0 mm 0 W/m2
06:08 16.1 °C 12.4 °C 1008.7 hPa North 3.5 km/h 9.7 km/h 79% 0.0 mm 0 W/m2
06:13 15.8 °C 12.6 °C 1008.7 hPa North 2.6 km/h 9.7 km/h 81% 0.0 mm 0 W/m2
06:18 16.1 °C 13.1 °C 1008.7 hPa Calm   9.7 km/h 82% 0.0 mm 0 W/m2
06:23 15.5 °C 12.6 °C 1008.7 hPa NE 2.6 km/h 7.2 km/h 83% 0.0 mm 0 W/m2
06:28 15.4 °C 12.6 °C 1008.7 hPa Calm   7.2 km/h 83% 0.0 mm 0 W/m2
06:33 15.2 °C 12.3 °C 1009.0 hPa NNW 6.1 km/h 8.7 km/h 83% 0.0 mm 0 W/m2
06:38 15.2 °C 12.5 °C 1009.0 hPa NW 6.1 km/h 8.7 km/h 84% 0.0 mm 0 W/m2
06:43 14.9 °C 12.4 °C 1009.0 hPa NW 3.5 km/h 8.7 km/h 85% 0.0 mm 0 W/m2
06:48 14.8 °C 12.3 °C 1009.0 hPa Calm   8.7 km/h 85% 0.0 mm 0 W/m2
06:51 14.8 °C 12.3 °C 1009.0 hPa Calm   7.2 km/h 85% 0.0 mm 0 W/m2
06:56 14.7 °C 12.2 °C 1009.0 hPa North 3.5 km/h 5.0 km/h 85% 0.0 mm 0 W/m2
07:01 14.9 °C 12.2 °C 1009.0 hPa Calm   5.0 km/h 84% 0.0 mm 0 W/m2
07:06 14.9 °C 12.2 °C 1009.0 hPa Calm   5.0 km/h 84% 0.0 mm 0 W/m2
07:11 14.8 °C 11.9 °C 1009.0 hPa Calm     83% 0.0 mm 0 W/m2
07:16 14.6 °C 11.9 °C 1009.0 hPa Calm     84% 0.0 mm 0 W/m2
07:21 14.5 °C 11.8 °C 1009.0 hPa Calm     84% 0.0 mm 0 W/m2
07:26 14.7 °C 12.1 °C 1009.0 hPa Calm     84% 0.0 mm 0 W/m2
07:32 14.2 °C 11.6 °C 1009.4 hPa Calm     84% 0.0 mm 0 W/m2
07:37 14.2 °C 11.7 °C 1009.0 hPa Calm     85% 0.0 mm 0 W/m2
07:42 14.1 °C 11.6 °C 1009.0 hPa Calm     85% 0.0 mm 0 W/m2
07:47 14.1 °C 11.6 °C 1009.4 hPa Calm     85% 0.0 mm 0 W/m2
07:52 14.2 °C 11.9 °C 1009.4 hPa Calm   6.1 km/h 86% 0.0 mm 0 W/m2
07:57 14.2 °C 11.9 °C 1009.4 hPa Calm   6.1 km/h 86% 0.0 mm 0 W/m2
08:08 14.1 °C 11.6 °C 1009.4 hPa Calm   6.1 km/h 85% 0.0 mm 0 W/m2
08:13 13.9 °C 11.6 °C 1009.4 hPa Calm     86% 0.0 mm 0 W/m2
08:18 13.8 °C 11.5 °C 1009.4 hPa Calm     86% 0.0 mm 0 W/m2
08:23 13.7 °C 11.6 °C 1009.4 hPa Calm     87% 0.0 mm 0 W/m2
08:28 13.5 °C 11.4 °C 1009.4 hPa Calm     87% 0.0 mm 0 W/m2
08:33 13.2 °C 11.1 °C 1009.7 hPa Calm     87% 0.0 mm 0 W/m2
08:38 13.1 °C 11.0 °C 1009.7 hPa Calm     87% 0.0 mm 0 W/m2
08:43 13.1 °C 11.2 °C 1009.7 hPa Calm     88% 0.0 mm 0 W/m2
08:48 13.1 °C 11.3 °C 1009.7 hPa Calm     89% 0.0 mm 0 W/m2
08:53 12.7 °C 10.9 °C 1009.7 hPa Calm     89% 0.0 mm 0 W/m2
08:58 12.5 °C 10.9 °C 1009.7 hPa Calm     90% 0.0 mm 0 W/m2
09:03 12.3 °C 10.9 °C 1009.7 hPa Calm     91% 0.0 mm 0 W/m2
09:08 12.2 °C 10.9 °C 1009.7 hPa Calm     92% 0.0 mm 0 W/m2
09:13 12.2 °C 10.9 °C 1009.7 hPa Calm   7.2 km/h 92% 0.0 mm 0 W/m2
09:18 12.1 °C 11.0 °C 1009.7 hPa NNW 3.5 km/h 7.2 km/h 93% 0.0 mm 0 W/m2
09:23 12.0 °C 10.9 °C 1009.7 hPa Calm   7.2 km/h 93% 0.0 mm 0 W/m2
09:28 11.9 °C 11.1 °C 1009.7 hPa Calm   7.2 km/h 95% 0.0 mm 0 W/m2
09:33 11.8 °C 11.1 °C 1010.0 hPa Calm     95% 0.0 mm 0 W/m2
09:38 11.8 °C 11.1 °C 1009.7 hPa Calm     95% 0.0 mm 0 W/m2
09:43 11.7 °C 11.1 °C 1009.7 hPa Calm     96% 0.0 mm 0 W/m2
09:48 11.6 °C 11.0 °C 1009.7 hPa Calm     96% 0.0 mm 0 W/m2
09:53 11.5 °C 10.9 °C 1009.7 hPa Calm     96% 0.0 mm 0 W/m2
09:58 11.3 °C 10.7 °C 1009.7 hPa Calm     96% 0.0 mm 0 W/m2
10:13 11.2 °C 10.7 °C 1009.7 hPa Calm     97% 0.0 mm 0 W/m2
10:18 11.0 °C 10.6 °C 1009.7 hPa Calm     97% 0.0 mm 0 W/m2
10:23 11.1 °C 10.7 °C 1010.0 hPa Calm     97% 0.0 mm 0 W/m2
10:28 11.3 °C 10.8 °C 1009.7 hPa Calm     97% 0.0 mm 0 W/m2
10:33 11.4 °C 10.9 °C 1009.4 hPa Calm     97% 0.0 mm 0 W/m2
10:38 11.4 °C 11.1 °C 1009.7 hPa Calm     98% 0.0 mm 0 W/m2
10:43 11.2 °C 10.9 °C 1009.7 hPa Calm     98% 0.0 mm 0 W/m2
10:48 11.0 °C 10.7 °C 1009.7 hPa Calm     98% 0.0 mm 0 W/m2
10:53 11.0 °C 10.6 °C 1009.7 hPa Calm     97% 0.0 mm 0 W/m2
10:58 10.8 °C 10.5 °C 1009.7 hPa Calm     98% 0.0 mm 0 W/m2
11:04 10.7 °C 10.4 °C 1009.7 hPa Calm     98% 0.0 mm 0 W/m2
11:09 10.7 °C 10.4 °C 1009.4 hPa Calm     98% 0.0 mm 0 W/m2
11:14 10.7 °C 10.4 °C 1009.7 hPa Calm     98% 0.0 mm 0 W/m2
11:19 10.7 °C 10.4 °C 1009.7 hPa Calm     98% 0.0 mm 0 W/m2
11:24 10.6 °C 10.3 °C 1009.4 hPa Calm     98% 0.0 mm 0 W/m2
11:29 10.7 °C 10.6 °C 1009.7 hPa Calm     99% 0.0 mm 0 W/m2
11:34 10.7 °C 10.6 °C 1009.7 hPa Calm     99% 0.0 mm 0 W/m2
11:39 10.5 °C 10.3 °C 1009.7 hPa Calm     99% 0.0 mm 0 W/m2
11:44 10.4 °C 10.3 °C 1009.7 hPa Calm     99% 0.0 mm 0 W/m2
11:49 10.3 °C 10.0 °C 1009.7 hPa Calm     98% 0.0 mm 0 W/m2
11:54 10.3 °C 10.2 °C 1009.7 hPa Calm     99% 0.0 mm 0 W/m2
11:59 10.4 °C 10.3 °C 1009.7 hPa Calm     99% 0.0 mm 0 W/m2
12:04 10.5 °C 10.3 °C 1009.7 hPa Calm     99% 0.0 mm 0 W/m2
12:09 10.4 °C 10.3 °C 1009.7 hPa Calm     99% 0.0 mm 0 W/m2
12:19 10.3 °C 10.2 °C 1010.0 hPa Calm   5.0 km/h 99% 0.0 mm 0 W/m2
12:24 10.2 °C 10.1 °C 1010.0 hPa Calm   5.0 km/h 99% 0.0 mm 0 W/m2
12:29 10.2 °C 10.1 °C 1010.0 hPa Calm     99% 0.0 mm 0 W/m2
12:34 10.2 °C 10.1 °C 1010.0 hPa Calm     99% 0.0 mm 0 W/m2
12:39 10.3 °C 10.2 °C 1010.0 hPa Calm     99% 0.0 mm 0 W/m2
12:44 10.3 °C 10.2 °C 1010.0 hPa Calm     99% 0.0 mm 0 W/m2
12:49 10.3 °C 10.2 °C 1010.0 hPa Calm     99% 0.0 mm 0 W/m2
12:54 10.3 °C 10.2 °C 1010.0 hPa Calm     99% 0.0 mm 0 W/m2
12:59 10.3 °C 10.2 °C 1010.4 hPa Calm     99% 0.0 mm 0 W/m2
13:04 10.2 °C 10.1 °C 1010.0 hPa Calm     99% 0.0 mm 0 W/m2
13:09 10.2 °C 10.1 °C 1010.0 hPa Calm     99% 0.0 mm 0 W/m2
13:14 10.2 °C 10.1 °C 1010.0 hPa Calm     99% 0.0 mm 0 W/m2
13:19 10.2 °C 10.1 °C 1010.4 hPa Calm     99% 0.0 mm 0 W/m2
13:24 10.1 °C 9.9 °C 1010.4 hPa Calm     99% 0.0 mm 0 W/m2
13:29 10.0 °C 9.8 °C 1010.4 hPa Calm     99% 0.0 mm 0 W/m2
13:34 9.8 °C 9.7 °C 1010.4 hPa Calm     99% 0.0 mm 0 W/m2
13:39 9.7 °C 9.6 °C 1010.4 hPa Calm     99% 0.0 mm 0 W/m2
13:44 9.8 °C 9.7 °C 1010.4 hPa Calm     99% 0.0 mm 0 W/m2
13:49 9.8 °C 9.7 °C 1010.4 hPa Calm     99% 0.0 mm 0 W/m2
13:54 9.8 °C 9.7 °C 1010.4 hPa Calm     99% 0.0 mm 0 W/m2
13:59 9.8 °C 9.7 °C 1010.7 hPa Calm     99% 0.0 mm 0 W/m2
14:04 9.8 °C 9.7 °C 1010.4 hPa Calm     99% 0.0 mm 0 W/m2
14:09 9.9 °C 9.8 °C 1010.4 hPa Calm     99% 0.0 mm 0 W/m2
14:14 9.9 °C 9.8 °C 1010.4 hPa Calm     99% 0.0 mm 0 W/m2
14:19 9.9 °C 9.8 °C 1010.0 hPa Calm     99% 0.0 mm 0 W/m2
14:24 9.8 °C 9.7 °C 1010.4 hPa Calm     99% 0.0 mm 0 W/m2
14:29 9.8 °C 9.7 °C 1010.4 hPa Calm     99% 0.0 mm 0 W/m2
14:34 9.8 °C 9.7 °C 1010.4 hPa Calm     99% 0.0 mm 0 W/m2
14:39 9.8 °C 9.7 °C 1010.7 hPa Calm     99% 0.0 mm 0 W/m2
14:44 10.0 °C 9.8 °C 1010.7 hPa Calm     99% 0.0 mm 8 W/m2
14:49 9.9 °C 9.8 °C 1010.7 hPa Calm     99% 0.0 mm 12 W/m2
14:54 10.0 °C 9.8 °C 1010.4 hPa Calm     99% 0.0 mm 15 W/m2
14:59 10.1 °C 9.9 °C 1010.7 hPa Calm     99% 0.0 mm 19 W/m2
15:04 10.2 °C 10.1 °C 1010.7 hPa Calm     99% 0.0 mm 39 W/m2
15:09 10.5 °C 10.3 °C 1010.7 hPa Calm     99% 0.0 mm 81 W/m2
15:14 11.0 °C 10.7 °C 1010.7 hPa Calm     98% 0.0 mm 101 W/m2
15:19 11.5 °C 11.2 °C 1010.7 hPa Calm     98% 0.0 mm 119 W/m2
15:24 12.2 °C 11.7 °C 1010.7 hPa Calm     97% 0.0 mm 135 W/m2
15:29 13.2 °C 13.1 °C 1010.7 hPa Calm     99% 0.0 mm 151 W/m2
15:34 13.6 °C 13.4 °C 1011.1 hPa Calm     99% 0.0 mm 173 W/m2
15:39 13.8 °C 13.5 °C 1011.1 hPa Calm     98% 0.0 mm 199 W/m2
15:44 14.1 °C 13.0 °C 1011.1 hPa Calm     93% 0.0 mm 213 W/m2
15:49 15.1 °C 13.3 °C 1011.1 hPa Calm     89% 0.0 mm 241 W/m2
15:54 15.9 °C 12.8 °C 1011.1 hPa Calm     82% 0.0 mm 236 W/m2
16:04 16.1 °C 11.9 °C 1011.1 hPa Calm     76% 0.0 mm 212 W/m2
16:09 15.9 °C 11.9 °C 1011.1 hPa Calm     77% 0.0 mm 218 W/m2
16:14 15.9 °C 12.1 °C 1011.4 hPa Calm   3.5 km/h 78% 0.0 mm 218 W/m2
16:19 16.1 °C 12.4 °C 1011.4 hPa Calm   3.5 km/h 79% 0.0 mm 252 W/m2
16:39 17.2 °C 12.7 °C 1011.7 hPa Calm     75% 0.0 mm 181 W/m2
16:44 17.5 °C 13.1 °C 1011.4 hPa Calm     75% 0.0 mm 188 W/m2
16:49 17.8 °C 13.1 °C 1011.4 hPa Calm     74% 0.0 mm 194 W/m2
16:54 17.3 °C 12.4 °C 1011.4 hPa Calm   5.0 km/h 73% 0.0 mm 158 W/m2
16:59 17.3 °C 12.6 °C 1011.4 hPa Calm   5.0 km/h 74% 0.0 mm 328 W/m2
17:04 18.6 °C 14.3 °C 1011.7 hPa Calm     76% 0.0 mm 344 W/m2
17:09 20.1 °C 13.8 °C 1011.4 hPa Calm     67% 0.0 mm 376 W/m2
17:14 20.6 °C 13.6 °C 1011.4 hPa Calm     64% 0.0 mm 389 W/m2
17:19 21.1 °C 13.6 °C 1011.4 hPa Calm     62% 0.0 mm 406 W/m2
17:24 21.6 °C 13.8 °C 1011.4 hPa Calm     61% 0.0 mm 410 W/m2
17:29 21.6 °C 13.3 °C 1011.4 hPa Calm     59% 0.0 mm 391 W/m2
17:34 22.3 °C 13.4 °C 1011.4 hPa Calm     57% 0.0 mm 158 W/m2
17:39 22.4 °C 12.4 °C 1011.7 hPa North 6.1 km/h 11.1 km/h 53% 0.0 mm 99 W/m2
17:44 21.5 °C 11.6 °C 1011.4 hPa North 1.1 km/h 11.1 km/h 53% 0.0 mm 96 W/m2
17:49 21.0 °C 11.9 °C 1011.7 hPa North 6.1 km/h 12.2 km/h 56% 0.0 mm 106 W/m2
17:54 21.0 °C 11.6 °C 1011.7 hPa North 6.1 km/h 12.2 km/h 55% 0.0 mm 110 W/m2
17:59 20.9 °C 11.8 °C 1011.7 hPa North 5.0 km/h 11.1 km/h 56% 0.0 mm 92 W/m2
18:04 21.6 °C 12.2 °C 1011.7 hPa North 5.0 km/h 11.1 km/h 55% 0.0 mm 108 W/m2
18:09 22.0 °C 12.0 °C 1011.7 hPa NNE 5.0 km/h 9.7 km/h 53% 0.0 mm 117 W/m2
18:14 22.1 °C 11.8 °C 1011.7 hPa NE 2.6 km/h 9.7 km/h 52% 0.0 mm 136 W/m2
18:19 21.9 °C 11.9 °C 1011.7 hPa NNE 6.1 km/h 9.7 km/h 53% 0.0 mm 105 W/m2
18:24 22.2 °C 11.6 °C 1011.7 hPa Calm   9.7 km/h 51% 0.0 mm 138 W/m2
18:29 22.6 °C 11.9 °C 1011.7 hPa North 3.5 km/h 9.7 km/h 51% 0.0 mm 160 W/m2
18:34 22.3 °C 11.7 °C 1011.7 hPa North 2.6 km/h 12.2 km/h 51% 0.0 mm 322 W/m2
18:39 22.3 °C 11.7 °C 1011.7 hPa North 5.0 km/h 12.2 km/h 51% 0.0 mm 490 W/m2
18:44 22.6 °C 11.9 °C 1011.7 hPa North 3.5 km/h 12.2 km/h 51% 0.0 mm 221 W/m2
18:49 21.9 °C 11.6 °C 1011.7 hPa NNE 7.2 km/h 13.4 km/h 52% 0.0 mm 342 W/m2
18:54 21.2 °C 11.3 °C 1011.7 hPa NE 9.7 km/h 14.8 km/h 53% 0.0 mm 335 W/m2
18:59 21.2 °C 11.8 °C 1011.4 hPa ENE 3.5 km/h 14.8 km/h 55% 0.0 mm 509 W/m2
19:04 22.0 °C 12.0 °C 1011.4 hPa ENE 6.1 km/h 14.8 km/h 53% 0.0 mm 523 W/m2
19:09 22.0 °C 11.4 °C 1011.7 hPa NE 7.2 km/h 13.4 km/h 51% 0.0 mm 564 W/m2
19:14 21.9 °C 11.9 °C 1011.7 hPa NNE 8.7 km/h 18.3 km/h 53% 0.0 mm 381 W/m2
19:19 21.9 °C 11.9 °C 1011.4 hPa Calm   18.3 km/h 53% 0.0 mm 522 W/m2
19:24 22.8 °C 12.4 °C 1011.7 hPa NNE 11.1 km/h 17.2 km/h 52% 0.0 mm 542 W/m2
19:29 22.3 °C 11.7 °C 1011.4 hPa NNE 9.7 km/h 17.2 km/h 51% 0.0 mm 535 W/m2
19:34 22.4 °C 12.1 °C 1011.4 hPa NNE 6.1 km/h 17.2 km/h 52% 0.0 mm 516 W/m2
19:39 22.3 °C 11.7 °C 1011.4 hPa NNE 1.1 km/h 17.2 km/h 51% 0.0 mm 508 W/m2
19:44 22.6 °C 11.9 °C 1011.4 hPa North 6.1 km/h 14.8 km/h 51% 0.0 mm 504 W/m2
19:49 22.8 °C 12.2 °C 1011.7 hPa NNE 5.0 km/h 14.8 km/h 51% 0.0 mm 509 W/m2
19:54 22.5 °C 11.9 °C 1011.4 hPa North 2.6 km/h 12.2 km/h 51% 0.0 mm 528 W/m2
19:59 22.5 °C 11.9 °C 1011.4 hPa North 7.2 km/h 14.8 km/h 51% 0.0 mm 549 W/m2
20:04 22.7 °C 11.8 °C 1011.4 hPa NNE 7.2 km/h 14.8 km/h 50% 0.0 mm 534 W/m2
20:09 23.1 °C 11.8 °C 1011.4 hPa NNE 5.0 km/h 12.2 km/h 49% 0.0 mm 538 W/m2
20:14 23.0 °C 11.4 °C 1011.4 hPa NNE 3.5 km/h 14.8 km/h 48% 0.0 mm 295 W/m2
20:19 23.1 °C 11.5 °C 1011.4 hPa NNE 2.6 km/h 14.8 km/h 48% 0.0 mm 550 W/m2
20:24 23.4 °C 11.4 °C 1011.1 hPa NNE 5.0 km/h 13.4 km/h 47% 0.0 mm 467 W/m2
20:29 23.6 °C 12.3 °C 1011.1 hPa NE 5.0 km/h 11.1 km/h 49% 0.0 mm 517 W/m2
20:34 24.0 °C 11.7 °C 1010.7 hPa NE 7.2 km/h 12.2 km/h 46% 0.0 mm 508 W/m2
20:39 23.8 °C 11.8 °C 1010.7 hPa NNE 7.2 km/h 12.2 km/h 47% 0.0 mm 527 W/m2
20:44 23.6 °C 11.7 °C 1010.7 hPa North 3.5 km/h 15.8 km/h 47% 0.0 mm 508 W/m2
20:49 24.4 °C 12.1 °C 1010.7 hPa North 5.0 km/h 15.8 km/h 46% 0.0 mm 486 W/m2
20:54 23.8 °C 11.5 °C 1010.7 hPa North 12.2 km/h 21.9 km/h 46% 0.0 mm 514 W/m2
20:59 23.2 °C 11.3 °C 1010.7 hPa North 8.7 km/h 21.9 km/h 47% 0.0 mm 199 W/m2
21:04 22.7 °C 9.8 °C 1010.7 hPa North 7.2 km/h 21.9 km/h 44% 0.0 mm 286 W/m2
21:09 23.0 °C 11.1 °C 1010.4 hPa North 9.7 km/h 17.2 km/h 47% 0.0 mm 516 W/m2
21:14 23.4 °C 11.1 °C 1010.4 hPa NNW 6.1 km/h 17.2 km/h 46% 0.0 mm 204 W/m2
21:19 24.2 °C 11.6 °C 1010.4 hPa NNW 3.5 km/h 15.8 km/h 45% 0.0 mm 177 W/m2
21:24 24.3 °C 11.3 °C 1010.4 hPa NNW 9.7 km/h 17.2 km/h 44% 0.0 mm 330 W/m2
21:29 23.9 °C 11.6 °C 1010.4 hPa North 2.6 km/h 17.2 km/h 46% 0.0 mm 287 W/m2
21:34 23.9 °C 11.3 °C 1010.4 hPa North 12.2 km/h 17.2 km/h 45% 0.0 mm 420 W/m2
21:39 23.8 °C 11.5 °C 1010.4 hPa NNW 8.7 km/h 17.2 km/h 46% 0.0 mm 200 W/m2
21:44 23.9 °C 11.3 °C 1010.4 hPa North 7.2 km/h 17.2 km/h 45% 0.0 mm 420 W/m2
21:49 24.0 °C 11.3 °C 1010.4 hPa North 8.7 km/h 17.2 km/h 45% 0.0 mm 364 W/m2
21:54 24.1 °C 11.4 °C 1010.4 hPa NNW 8.7 km/h 15.8 km/h 45% 0.0 mm 392 W/m2
21:59 24.1 °C 11.4 °C 1010.4 hPa NW 3.5 km/h 13.4 km/h 45% 0.0 mm 338 W/m2
22:04 24.3 °C 11.3 °C 1010.4 hPa NW 6.1 km/h 13.4 km/h 44% 0.0 mm 376 W/m2
22:09 24.2 °C 11.2 °C 1010.0 hPa NW 6.1 km/h 12.2 km/h 44% 0.0 mm 103 W/m2
22:14 23.4 °C 11.1 °C 1010.4 hPa NNW 2.6 km/h 12.2 km/h 46% 0.0 mm 123 W/m2
22:19 22.8 °C 10.6 °C 1010.4 hPa North 3.5 km/h 12.2 km/h 46% 0.0 mm 149 W/m2
22:24 23.8 °C 11.8 °C 1010.0 hPa Calm   12.2 km/h 47% 0.0 mm 156 W/m2
22:34 27.1 °C 11.6 °C 1010.4 hPa NW 1.1 km/h 6.1 km/h 38% 0.0 mm 128 W/m2
22:39 26.7 °C 11.2 °C 1010.0 hPa NNW 2.6 km/h 7.2 km/h 38% 0.0 mm 95 W/m2
22:44 27.0 °C 10.7 °C 1010.0 hPa North 3.5 km/h 7.2 km/h 36% 0.0 mm 114 W/m2
22:49 25.3 °C 10.7 °C 1010.0 hPa Calm   9.7 km/h 40% 0.0 mm 121 W/m2
22:54 24.3 °C 11.3 °C 1010.4 hPa North 1.1 km/h 9.7 km/h 44% 0.0 mm 151 W/m2
22:59 25.5 °C 12.4 °C 1010.4 hPa NNE 2.6 km/h 8.7 km/h 44% 0.0 mm 209 W/m2
23:04 25.5 °C 11.3 °C 1010.4 hPa NE 2.6 km/h 11.1 km/h 41% 0.0 mm 148 W/m2
23:09 23.9 °C 11.3 °C 1010.0 hPa NE 3.5 km/h 13.4 km/h 45% 0.0 mm 103 W/m2
23:14 22.9 °C 11.0 °C 1010.4 hPa NNE 3.5 km/h 13.4 km/h 47% 0.0 mm 117 W/m2
23:19 22.6 °C 11.3 °C 1010.0 hPa North 5.0 km/h 7.2 km/h 49% 0.0 mm 109 W/m2
23:24 22.3 °C 11.4 °C 1010.0 hPa North 2.6 km/h 8.7 km/h 50% 0.0 mm 91 W/m2
23:29 22.0 °C 11.4 °C 1010.4 hPa North 5.0 km/h 8.7 km/h 51% 0.0 mm 85 W/m2
23:34 21.8 °C 11.8 °C 1010.0 hPa NNE 6.1 km/h 9.7 km/h 53% 0.0 mm 94 W/m2
23:39 21.8 °C 12.4 °C 1010.0 hPa NNE 2.6 km/h 9.7 km/h 55% 0.0 mm 117 W/m2
23:44 21.7 °C 12.6 °C 1010.0 hPa NE 1.1 km/h 8.7 km/h 56% 0.0 mm 86 W/m2
23:49 21.5 °C 12.6 °C 1010.4 hPa NNE 5.0 km/h 8.7 km/h 57% 0.0 mm 58 W/m2
23:54 21.2 °C 12.6 °C 1010.4 hPa North 5.0 km/h 9.7 km/h 58% 0.0 mm 65 W/m2
23:59 21.0 °C 13.2 °C 1010.4 hPa Calm   12.2 km/h 61% 0.0 mm 64 W/m2
Northern Hawkes Bay. New Zealand Historic Data
Compliments of Weather Underground - 2 mb